Time;durP1;ratioP1;P1;durP2;ratioP2;P2;SDS_P1;SDS_P2;PMS_P1;PMS_P2;Temp;Humidity;BMP_temperature;BMP_pressure;BME280_temperature;BME280_humidity;BME280_pressure;Samples;Min_cycle;Max_cycle;Signal;HPM_P1;HPM_P2
2023/08/29 00:01:10;;;;;;;9.18;8.40;;;11.30;99.90;;;;;;5065721;28;20040;-75
2023/08/29 00:03:37;;;;;;;9.73;8.93;;;11.20;99.90;;;;;;5047551;28;20052;-74
2023/08/29 00:06:05;;;;;;;10.32;9.45;;;11.10;99.90;;;;;;5049308;28;20044;-75
2023/08/29 00:08:35;;;;;;;10.55;9.82;;;11.00;99.90;;;;;;5048706;28;20105;-75
2023/08/29 00:11:05;;;;;;;11.77;10.75;;;11.00;99.90;;;;;;5030773;28;20110;-75
2023/08/29 00:13:31;;;;;;;11.27;10.23;;;11.10;99.90;;;;;;5048147;28;20047;-75
2023/08/29 00:15:58;;;;;;;11.55;10.63;;;11.00;99.90;;;;;;5051018;28;20416;-75
2023/08/29 00:18:25;;;;;;;11.70;10.70;;;11.10;99.90;;;;;;5045710;28;20491;-76
2023/08/29 00:20:52;;;;;;;12.02;10.73;;;11.20;99.90;;;;;;5050351;28;20040;-75
2023/08/29 00:23:19;;;;;;;11.95;10.93;;;11.00;99.90;;;;;;5044216;28;20048;-75
2023/08/29 00:25:46;;;;;;;11.77;10.32;;;11.10;99.90;;;;;;5047473;28;20067;-76
2023/08/29 00:28:13;;;;;;;10.43;9.63;;;11.00;99.90;;;;;;5050584;28;20056;-76
2023/08/29 00:30:40;;;;;;;11.07;9.95;;;10.90;99.90;;;;;;5044515;28;20065;-76
2023/08/29 00:33:11;;;;;;;11.18;10.35;;;10.70;99.90;;;;;;5049189;28;20384;-77
2023/08/29 00:35:39;;;;;;;12.93;11.82;;;10.60;99.90;;;;;;5050035;28;20052;-76
2023/08/29 00:38:06;;;;;;;14.68;13.20;;;10.60;99.90;;;;;;5035617;28;20441;-75
2023/08/29 00:40:34;;;;;;;17.38;13.63;;;10.60;99.90;;;;;;5050695;28;20044;-75
2023/08/29 00:43:02;;;;;;;13.93;12.85;;;10.50;99.90;;;;;;5047129;28;20053;-76
2023/08/29 00:45:35;;;;;;;14.70;13.20;;;10.50;99.90;;;;;;5047555;28;20826;-75
2023/08/29 00:48:02;;;;;;;12.48;11.48;;;10.60;99.90;;;;;;5032852;28;20049;-76
2023/08/29 00:50:33;;;;;;;12.63;11.52;;;10.60;99.90;;;;;;5045011;28;20144;-76
2023/08/29 00:53:06;;;;;;;13.38;12.38;;;10.50;99.90;;;;;;5049101;28;20636;-76
2023/08/29 00:55:34;;;;;;;12.65;11.65;;;10.60;99.90;;;;;;5046155;28;20047;-76
2023/08/29 00:58:04;;;;;;;11.40;10.60;;;10.50;99.90;;;;;;5024654;28;20059;-75
2023/08/29 01:00:32;;;;;;;11.80;10.70;;;10.50;99.90;;;;;;5029588;28;20661;-76
2023/08/29 01:03:00;;;;;;;11.25;10.10;;;10.50;99.90;;;;;;5030772;28;20118;-76
2023/08/29 01:05:28;;;;;;;13.02;9.82;;;10.50;99.90;;;;;;5048901;28;20044;-75
2023/08/29 01:07:59;;;;;;;10.73;9.93;;;10.40;99.90;;;;;;5046342;28;20072;-76
2023/08/29 01:10:36;;;;;;;10.82;10.02;;;10.40;99.90;;;;;;5045915;28;20978;-75
2023/08/29 01:13:29;;;;;;;13.32;10.18;;;10.40;99.90;;;;;;5044146;28;20487;-75
2023/08/29 01:16:00;;;;;;;11.70;10.52;;;10.50;99.90;;;;;;5042412;28;20495;-74
2023/08/29 01:18:28;;;;;;;11.48;10.50;;;10.60;99.90;;;;;;5026849;28;20883;-75
2023/08/29 01:21:02;;;;;;;11.82;10.60;;;10.60;99.90;;;;;;5045108;28;20068;-75
2023/08/29 01:23:43;;;;;;;11.95;10.95;;;10.50;99.90;;;;;;5048687;28;20051;-75
2023/08/29 01:26:14;;;;;;;12.98;10.63;;;10.60;99.90;;;;;;5047133;28;20787;-75
2023/08/29 01:28:44;;;;;;;11.40;10.50;;;10.50;99.90;;;;;;5048141;28;20100;-75
2023/08/29 01:31:12;;;;;;;11.55;10.45;;;10.40;99.90;;;;;;5047574;28;20052;-75
2023/08/29 01:33:39;;;;;;;12.52;11.52;;;10.50;99.90;;;;;;5045617;28;20056;-75
2023/08/29 01:36:06;;;;;;;12.80;11.70;;;10.50;99.90;;;;;;5048130;28;20074;-75
2023/08/29 01:38:33;;;;;;;11.65;10.65;;;10.40;99.90;;;;;;5046738;28;20056;-75
2023/08/29 01:41:00;;;;;;;12.38;11.38;;;10.40;99.90;;;;;;5045300;28;20048;-75
2023/08/29 01:43:27;;;;;;;12.45;11.20;;;10.50;99.90;;;;;;5046788;28;20044;-75
2023/08/29 01:45:56;;;;;;;12.18;11.18;;;10.40;99.90;;;;;;5047904;28;20060;-75
2023/08/29 01:48:24;;;;;;;12.05;11.15;;;10.40;99.90;;;;;;5048724;28;20040;-75
2023/08/29 01:50:52;;;;;;;13.90;12.57;;;10.30;99.90;;;;;;5045414;28;20049;-75
2023/08/29 01:53:19;;;;;;;13.00;11.90;;;10.40;99.90;;;;;;5050701;28;20048;-75
2023/08/29 01:55:47;;;;;;;13.23;12.05;;;10.50;99.90;;;;;;5046524;28;20047;-75
2023/08/29 01:58:16;;;;;;;13.02;11.85;;;10.50;99.90;;;;;;5045415;28;20056;-75
2023/08/29 02:00:44;;;;;;;13.73;12.43;;;10.50;99.90;;;;;;5045628;28;20058;-75
2023/08/29 02:03:11;;;;;;;13.30;11.80;;;10.60;99.90;;;;;;5046613;28;20110;-75
2023/08/29 02:05:37;;;;;;;12.98;11.68;;;10.60;99.90;;;;;;5042521;28;20694;-75
2023/08/29 02:08:04;;;;;;;15.52;13.02;;;10.70;99.90;;;;;;5050785;28;20126;-75
2023/08/29 02:10:34;;;;;;;13.40;12.10;;;10.70;99.90;;;;;;5034599;28;20044;-75
2023/08/29 02:13:01;;;;;;;12.05;11.10;;;10.60;99.90;;;;;;5051683;28;20556;-76
2023/08/29 02:15:28;;;;;;;13.40;12.05;;;10.60;99.90;;;;;;5050977;28;20481;-76
2023/08/29 02:17:55;;;;;;;13.50;12.25;;;10.80;99.90;;;;;;5056847;28;20096;-76
2023/08/29 02:20:22;;;;;;;12.85;11.65;;;10.80;99.90;;;;;;5053339;28;20044;-74
2023/08/29 02:22:49;;;;;;;12.98;11.88;;;10.60;99.90;;;;;;5052844;28;20120;-75
2023/08/29 02:25:15;;;;;;;15.80;12.07;;;10.60;99.90;;;;;;5035006;28;20170;-76
2023/08/29 02:27:42;;;;;;;13.35;12.20;;;10.50;99.90;;;;;;5051629;28;20072;-75
2023/08/29 02:30:10;;;;;;;13.45;12.15;;;10.40;99.90;;;;;;5054825;28;20101;-74
2023/08/29 02:32:38;;;;;;;13.75;12.50;;;10.30;99.90;;;;;;5054495;28;20060;-75
2023/08/29 02:35:06;;;;;;;13.75;12.45;;;10.30;99.90;;;;;;5049003;28;20103;-75
2023/08/29 02:37:34;;;;;;;13.10;11.85;;;10.50;99.90;;;;;;5049152;28;20055;-76
2023/08/29 02:40:04;;;;;;;12.40;11.32;;;10.50;99.90;;;;;;5049995;28;20171;-74
2023/08/29 02:42:31;;;;;;;14.63;12.02;;;10.50;99.90;;;;;;5050250;28;20053;-75
2023/08/29 02:44:58;;;;;;;12.95;11.65;;;10.50;99.90;;;;;;5050629;28;20133;-74
2023/08/29 02:47:25;;;;;;;11.68;10.75;;;10.50;99.90;;;;;;5052557;28;20071;-74
2023/08/29 02:49:52;;;;;;;13.43;11.90;;;10.50;99.90;;;;;;5034273;28;20051;-75
2023/08/29 02:52:20;;;;;;;11.73;10.75;;;10.50;99.90;;;;;;5053658;28;20162;-76
2023/08/29 02:54:47;;;;;;;12.55;11.30;;;10.70;99.90;;;;;;5050994;28;20032;-75
2023/08/29 02:57:14;;;;;;;12.30;11.05;;;10.70;99.90;;;;;;5050380;28;20071;-75
2023/08/29 02:59:41;;;;;;;11.40;10.57;;;10.80;99.90;;;;;;5044859;28;20044;-75
2023/08/29 03:02:08;;;;;;;13.10;12.00;;;10.70;99.90;;;;;;5050003;28;20044;-76
2023/08/29 03:04:35;;;;;;;12.60;11.50;;;10.60;99.90;;;;;;5049014;28;20045;-75
2023/08/29 03:07:04;;;;;;;12.07;11.10;;;10.60;99.90;;;;;;5003170;28;20055;-76
2023/08/29 03:09:31;;;;;;;12.38;11.27;;;10.60;99.90;;;;;;5026632;28;20106;-74
2023/08/29 03:11:58;;;;;;;11.65;10.70;;;10.60;99.90;;;;;;5046673;28;20047;-74
2023/08/29 03:14:24;;;;;;;13.25;11.93;;;10.70;99.90;;;;;;5033713;28;20052;-74
2023/08/29 03:16:52;;;;;;;13.48;12.10;;;10.80;99.90;;;;;;5048930;28;20102;-76
2023/08/29 03:19:18;;;;;;;11.32;10.43;;;10.70;99.90;;;;;;5041487;28;20570;-76
2023/08/29 03:21:45;;;;;;;14.25;12.85;;;10.80;99.90;;;;;;5045130;28;20521;-77
2023/08/29 03:24:12;;;;;;;12.73;11.50;;;10.90;99.90;;;;;;5050250;28;20076;-74
2023/08/29 03:26:39;;;;;;;12.95;11.65;;;11.00;99.90;;;;;;5049336;28;20052;-75
2023/08/29 03:29:06;;;;;;;12.60;10.77;;;10.90;99.90;;;;;;5033584;28;20060;-77
2023/08/29 03:31:33;;;;;;;11.88;10.63;;;10.90;99.90;;;;;;5046942;28;20840;-73
2023/08/29 03:34:00;;;;;;;12.55;11.35;;;11.00;99.90;;;;;;5057931;28;20045;-77
2023/08/29 03:36:28;;;;;;;15.32;11.88;;;10.70;99.90;;;;;;5049483;28;20055;-74
2023/08/29 03:38:54;;;;;;;16.35;11.13;;;10.50;99.90;;;;;;5055282;28;20044;-75
2023/08/29 03:41:22;;;;;;;15.07;11.20;;;10.60;99.90;;;;;;5047832;28;20040;-75
2023/08/29 03:43:49;;;;;;;16.80;11.20;;;10.60;99.90;;;;;;5048399;28;20619;-77
2023/08/29 03:46:16;;;;;;;13.45;12.05;;;10.60;99.90;;;;;;5050473;28;20137;-75
2023/08/29 03:48:43;;;;;;;17.55;11.85;;;10.70;99.90;;;;;;5049406;28;20044;-75
2023/08/29 03:51:10;;;;;;;16.05;12.60;;;10.80;99.90;;;;;;5047277;28;20045;-75
2023/08/29 03:53:38;;;;;;;18.02;13.52;;;10.90;99.90;;;;;;5051205;28;20815;-76
2023/08/29 03:56:09;;;;;;;15.30;12.95;;;11.00;99.90;;;;;;5047062;28;20110;-76
2023/08/29 03:58:35;;;;;;;21.17;13.73;;;11.10;99.90;;;;;;5030669;28;20103;-75
2023/08/29 04:01:07;;;;;;;17.13;14.32;;;11.10;99.90;;;;;;5066748;28;20079;-75
2023/08/29 04:03:34;;;;;;;19.42;13.73;;;11.20;99.90;;;;;;5042777;28;20048;-75
2023/08/29 04:06:03;;;;;;;14.95;13.35;;;11.20;99.90;;;;;;5050603;28;20604;-75
2023/08/29 04:08:30;;;;;;;18.30;14.35;;;11.20;99.90;;;;;;5050224;28;20044;-75
2023/08/29 04:10:56;;;;;;;20.38;15.30;;;11.20;99.90;;;;;;5047756;28;20056;-75
2023/08/29 04:13:24;;;;;;;19.40;15.23;;;11.10;99.90;;;;;;5050003;28;20051;-75
2023/08/29 04:15:50;;;;;;;16.40;14.70;;;11.10;99.90;;;;;;5045052;28;20118;-75
2023/08/29 04:18:17;;;;;;;18.38;14.45;;;11.00;99.90;;;;;;5049438;28;20048;-75
2023/08/29 04:20:44;;;;;;;16.98;13.02;;;11.00;99.90;;;;;;5038502;28;20642;-76
2023/08/29 04:23:11;;;;;;;19.23;15.90;;;11.10;99.90;;;;;;5035005;28;20044;-76
2023/08/29 04:25:38;;;;;;;17.98;15.02;;;11.20;99.90;;;;;;5048874;28;20043;-76
2023/08/29 04:28:05;;;;;;;18.92;14.98;;;11.20;99.90;;;;;;5037018;28;20048;-75
2023/08/29 04:30:33;;;;;;;16.70;14.85;;;11.20;99.90;;;;;;5047713;28;20691;-75
2023/08/29 04:33:00;;;;;;;17.08;15.35;;;11.40;99.90;;;;;;5048236;28;20510;-75
2023/08/29 04:35:27;;;;;;;20.77;16.50;;;11.50;99.90;;;;;;5051143;28;21899;-75
2023/08/29 04:37:54;;;;;;;19.85;17.45;;;11.60;99.90;;;;;;5046787;28;20133;-75
2023/08/29 04:40:21;;;;;;;19.42;15.95;;;11.60;99.90;;;;;;5032073;28;20113;-75
2023/08/29 04:42:51;;;;;;;15.93;14.15;;;11.70;99.90;;;;;;5047475;28;20127;-75
2023/08/29 04:45:19;;;;;;;17.05;15.13;;;11.60;99.90;;;;;;5031824;28;20048;-75
2023/08/29 04:47:46;;;;;;;17.15;15.65;;;11.50;99.90;;;;;;5047419;28;20045;-76
2023/08/29 04:50:14;;;;;;;14.77;13.43;;;11.40;99.90;;;;;;5047049;28;20055;-76
2023/08/29 04:52:42;;;;;;;16.35;14.55;;;11.50;99.90;;;;;;5030286;28;20664;-75
2023/08/29 04:55:10;;;;;;;15.75;14.23;;;11.60;99.90;;;;;;5062801;28;20068;-76
2023/08/29 04:57:40;;;;;;;18.10;13.65;;;11.70;99.90;;;;;;5045115;28;20735;-76
2023/08/29 05:00:09;;;;;;;16.70;15.00;;;11.70;99.90;;;;;;5048515;28;20060;-76
2023/08/29 05:02:36;;;;;;;15.88;14.38;;;11.70;99.90;;;;;;5048954;28;20041;-75
2023/08/29 05:05:03;;;;;;;15.85;14.25;;;11.70;99.90;;;;;;5031434;28;20039;-76
2023/08/29 05:07:30;;;;;;;14.98;13.50;;;11.70;99.90;;;;;;5012831;28;20550;-75
2023/08/29 05:09:57;;;;;;;16.33;14.55;;;11.60;99.90;;;;;;5042550;28;20462;-75
2023/08/29 05:12:24;;;;;;;14.95;13.52;;;11.70;99.90;;;;;;5040158;28;20051;-75
2023/08/29 05:14:53;;;;;;;15.40;14.10;;;11.70;99.90;;;;;;5031628;28;20041;-76
2023/08/29 05:17:20;;;;;;;16.23;14.65;;;11.70;99.90;;;;;;5048377;28;21129;-75
2023/08/29 05:19:49;;;;;;;16.20;14.80;;;11.70;99.90;;;;;;5037032;28;20454;-75
2023/08/29 05:22:20;;;;;;;18.05;16.05;;;11.70;99.90;;;;;;5030741;28;20047;-76
2023/08/29 05:24:48;;;;;;;17.35;15.68;;;11.80;99.90;;;;;;5044394;28;20449;-76
2023/08/29 05:27:15;;;;;;;18.13;16.30;;;12.00;99.90;;;;;;5036518;28;20137;-75
2023/08/29 05:29:41;;;;;;;20.15;16.35;;;12.00;99.90;;;;;;5040138;28;20122;-76
2023/08/29 05:32:12;;;;;;;19.65;16.65;;;12.10;99.90;;;;;;5046022;28;20067;-76
2023/08/29 05:34:39;;;;;;;19.50;16.55;;;12.20;99.90;;;;;;5020233;28;20044;-76
2023/08/29 05:37:05;;;;;;;29.63;19.42;;;12.20;99.90;;;;;;5046593;28;20052;-76
2023/08/29 05:39:32;;;;;;;44.22;24.50;;;12.30;99.90;;;;;;5032574;28;20052;-76
2023/08/29 05:41:59;;;;;;;37.53;22.17;;;12.40;99.90;;;;;;5044098;28;20159;-75
2023/08/29 05:44:26;;;;;;;44.90;22.63;;;12.40;99.90;;;;;;5051335;28;20443;-75
2023/08/29 05:46:52;;;;;;;42.85;23.50;;;12.40;99.90;;;;;;5047419;28;20481;-76
2023/08/29 05:49:19;;;;;;;50.63;24.42;;;12.40;99.90;;;;;;5044043;28;20542;-75
2023/08/29 05:51:46;;;;;;;60.00;26.75;;;12.30;99.90;;;;;;5035962;28;20092;-74
2023/08/29 05:54:13;;;;;;;75.07;29.63;;;12.10;99.90;;;;;;5048185;28;20047;-75
2023/08/29 05:56:41;;;;;;;82.90;31.98;;;11.90;99.90;;;;;;5045741;28;20040;-77
2023/08/29 05:59:08;;;;;;;94.93;36.17;;;11.90;99.90;;;;;;5031571;28;20656;-77
2023/08/29 06:01:35;;;;;;;92.13;38.92;;;11.90;99.90;;;;;;5029548;28;20041;-75
2023/08/29 06:04:04;;;;;;;104.47;39.90;;;12.00;99.90;;;;;;5037458;28;20076;-75
2023/08/29 06:06:31;;;;;;;99.75;38.50;;;12.10;99.90;;;;;;5047585;28;20093;-76
2023/08/29 06:09:02;;;;;;;99.45;39.78;;;12.20;99.90;;;;;;5048686;28;20392;-75
2023/08/29 06:11:30;;;;;;;107.47;42.63;;;12.20;99.90;;;;;;5030136;28;20032;-75
2023/08/29 06:13:57;;;;;;;121.57;44.35;;;12.30;99.90;;;;;;5043422;28;20040;-74
2023/08/29 06:16:26;;;;;;;123.80;46.50;;;12.50;99.90;;;;;;5046821;28;20044;-74
2023/08/29 06:18:53;;;;;;;137.95;49.13;;;12.60;99.90;;;;;;5046412;28;20045;-77
2023/08/29 06:21:19;;;;;;;95.55;45.10;;;12.60;99.90;;;;;;5050070;28;20086;-74
2023/08/29 06:23:48;;;;;;;98.75;45.30;;;12.60;99.90;;;;;;5049108;28;20036;-75
2023/08/29 06:26:15;;;;;;;184.32;51.45;;;12.70;99.90;;;;;;5054047;28;20048;-75
2023/08/29 06:28:42;;;;;;;87.13;47.92;;;12.70;99.90;;;;;;5041047;28;20102;-75
2023/08/29 06:31:09;;;;;;;74.95;43.63;;;12.70;99.90;;;;;;5048004;28;20147;-75
2023/08/29 06:33:37;;;;;;;79.97;44.65;;;12.70;99.90;;;;;;5044858;28;20044;-75
2023/08/29 06:36:04;;;;;;;76.53;41.03;;;12.80;99.90;;;;;;5046077;28;20052;-75
2023/08/29 06:38:31;;;;;;;79.30;42.45;;;12.90;99.90;;;;;;5045491;28;20048;-75
2023/08/29 06:41:02;;;;;;;74.75;42.65;;;12.90;99.90;;;;;;5045259;28;20041;-77
2023/08/29 06:43:29;;;;;;;80.35;43.35;;;12.90;99.90;;;;;;5044401;28;20056;-77
2023/08/29 06:45:56;;;;;;;75.25;41.45;;;12.90;99.90;;;;;;5053924;28;20053;-79
2023/08/29 06:48:23;;;;;;;70.65;41.00;;;12.90;99.90;;;;;;5047989;28;20048;-78
2023/08/29 06:50:49;;;;;;;65.85;37.97;;;13.00;99.90;;;;;;5046135;28;20384;-78
2023/08/29 06:53:16;;;;;;;58.38;35.78;;;13.10;99.90;;;;;;5049210;28;20337;-78
2023/08/29 06:55:54;;;;;;;62.08;36.35;;;13.10;99.90;;;;;;5040122;28;20044;-78
2023/08/29 06:58:21;;;;;;;62.55;35.83;;;13.10;99.90;;;;;;5046015;28;20511;-78
2023/08/29 07:00:48;;;;;;;56.72;33.03;;;13.10;99.90;;;;;;5047522;28;20551;-79
2023/08/29 07:03:15;;;;;;;60.30;35.42;;;13.10;99.90;;;;;;5049700;28;20041;-79
2023/08/29 07:05:42;;;;;;;61.67;36.97;;;13.10;99.90;;;;;;5029654;28;20057;-78
2023/08/29 07:08:08;;;;;;;54.65;34.38;;;13.10;99.90;;;;;;5044270;28;20040;-79
2023/08/29 07:10:35;;;;;;;55.53;36.13;;;13.30;99.90;;;;;;5045916;28;20060;-79
2023/08/29 07:13:04;;;;;;;52.65;38.13;;;13.30;99.90;;;;;;5046072;28;20044;-78
2023/08/29 07:15:30;;;;;;;49.45;35.08;;;13.40;99.90;;;;;;5051433;28;20541;-79
2023/08/29 07:17:59;;;;;;;46.50;33.83;;;13.50;99.90;;;;;;5048878;28;20052;-78
2023/08/29 07:20:26;;;;;;;45.35;33.25;;;13.50;99.90;;;;;;5032219;28;20056;-76
2023/08/29 07:22:53;;;;;;;43.15;32.40;;;13.60;99.90;;;;;;5050393;28;20049;-76
2023/08/29 07:25:38;;;;;;;48.00;33.28;;;13.60;99.90;;;;;;5047070;28;20163;-77
2023/08/29 07:28:07;;;;;;;44.85;33.08;;;13.60;99.90;;;;;;5050482;28;20052;-77
2023/08/29 07:30:34;;;;;;;43.10;33.35;;;13.70;99.90;;;;;;5041129;28;20094;-76
2023/08/29 07:33:05;;;;;;;45.17;32.70;;;13.70;99.90;;;;;;5046790;28;21287;-76
2023/08/29 07:35:31;;;;;;;47.10;33.90;;;13.70;99.90;;;;;;5051081;28;20562;-77
2023/08/29 07:37:58;;;;;;;50.00;34.83;;;13.80;99.90;;;;;;5050315;28;20607;-76
2023/08/29 07:40:25;;;;;;;47.05;34.05;;;13.80;99.90;;;;;;5034446;28;20140;-77
2023/08/29 07:42:52;;;;;;;46.50;33.97;;;13.90;99.90;;;;;;5049348;28;20472;-77
2023/08/29 07:45:19;;;;;;;47.42;33.95;;;14.00;99.90;;;;;;5051129;28;20056;-77
2023/08/29 07:47:46;;;;;;;47.28;34.42;;;14.10;99.90;;;;;;5033142;28;20041;-76
2023/08/29 07:50:13;;;;;;;41.47;31.50;;;14.20;99.90;;;;;;5050736;28;20111;-77
2023/08/29 07:52:39;;;;;;;42.95;33.00;;;14.30;99.90;;;;;;5050046;28;20049;-77
2023/08/29 07:55:08;;;;;;;39.63;32.67;;;14.40;99.90;;;;;;5048280;28;20521;-76
2023/08/29 07:57:35;;;;;;;40.25;31.85;;;14.50;99.90;;;;;;5048167;28;20110;-77
2023/08/29 08:00:02;;;;;;;38.08;29.77;;;14.50;99.90;;;;;;5024269;28;20067;-77
2023/08/29 08:02:33;;;;;;;36.17;29.55;;;14.50;99.90;;;;;;5033124;28;20052;-76
2023/08/29 08:05:01;;;;;;;36.40;31.45;;;14.60;99.90;;;;;;5033023;28;20074;-77
2023/08/29 08:07:28;;;;;;;33.55;30.02;;;14.70;99.90;;;;;;5052481;28;20495;-77
2023/08/29 08:09:55;;;;;;;29.67;26.67;;;14.90;99.90;;;;;;5050319;28;20052;-77
2023/08/29 08:12:22;;;;;;;29.80;26.58;;;15.00;99.90;;;;;;5050255;28;20100;-76
2023/08/29 08:14:50;;;;;;;31.15;27.77;;;15.00;99.90;;;;;;5028720;28;20114;-76
2023/08/29 08:17:17;;;;;;;30.50;27.70;;;15.20;99.90;;;;;;5051159;28;20040;-77
2023/08/29 08:19:44;;;;;;;31.15;28.27;;;15.20;99.90;;;;;;5052547;28;20120;-76
2023/08/29 08:22:12;;;;;;;29.98;27.50;;;15.40;99.90;;;;;;5050578;28;20048;-76
2023/08/29 08:24:40;;;;;;;31.08;28.17;;;15.50;99.90;;;;;;5046884;28;20048;-77
2023/08/29 08:27:31;;;;;;;31.58;28.77;;;15.50;99.90;;;;;;5028664;28;20132;-78
2023/08/29 08:29:59;;;;;;;35.00;32.00;;;15.70;99.90;;;;;;5057550;28;20298;-78
2023/08/29 08:32:27;;;;;;;33.25;30.25;;;15.70;99.90;;;;;;5052192;28;20041;-79
2023/08/29 08:34:55;;;;;;;32.45;29.60;;;15.80;99.90;;;;;;5047494;28;20044;-79
2023/08/29 08:37:22;;;;;;;32.00;29.50;;;15.80;99.90;;;;;;5053301;28;20053;-79
2023/08/29 08:39:48;;;;;;;31.33;28.35;;;15.60;99.90;;;;;;5034622;28;20040;-79
2023/08/29 08:42:16;;;;;;;31.23;28.80;;;15.70;99.90;;;;;;5051645;28;20040;-81
2023/08/29 08:44:43;;;;;;;31.17;28.48;;;15.70;99.90;;;;;;5053977;28;20040;-79
2023/08/29 08:47:13;;;;;;;37.63;34.00;;;15.80;99.90;;;;;;5050713;28;20037;-81
2023/08/29 08:49:40;;;;;;;33.78;30.90;;;15.90;99.90;;;;;;5052359;28;20411;-79
2023/08/29 08:52:10;;;;;;;32.83;30.05;;;16.00;99.90;;;;;;5049474;28;20136;-78
2023/08/29 08:54:37;;;;;;;34.10;30.98;;;16.00;99.90;;;;;;5035688;28;20051;-78
2023/08/29 08:57:12;;;;;;;;;;;15.90;99.90;;;;;;5047935;28;21605;-79
2023/08/29 08:59:41;;;;;;;32.38;29.48;;;15.70;99.90;;;;;;5049293;28;20183;-78
2023/08/29 09:02:14;;;;;;;31.00;28.55;;;15.70;99.90;;;;;;5034804;28;20478;-78
2023/08/29 09:04:41;;;;;;;32.88;30.15;;;15.70;99.90;;;;;;5045878;28;20076;-78
2023/08/29 09:07:08;;;;;;;31.80;29.02;;;15.90;99.90;;;;;;5051030;28;20041;-78
2023/08/29 09:09:35;;;;;;;31.23;28.52;;;16.10;99.90;;;;;;5054943;28;20098;-79
2023/08/29 09:12:03;;;;;;;30.23;27.92;;;16.30;99.90;;;;;;5045433;28;20052;-78
2023/08/29 09:14:31;;;;;;;28.85;26.55;;;16.40;99.90;;;;;;5063590;28;20041;-80
2023/08/29 09:17:00;;;;;;;30.50;28.05;;;16.50;99.90;;;;;;5050725;28;20048;-80
2023/08/29 09:19:34;;;;;;;31.60;28.75;;;16.70;99.90;;;;;;5058424;28;20057;-80
2023/08/29 09:22:02;;;;;;;31.83;29.25;;;16.70;99.90;;;;;;5056728;28;20053;-79
2023/08/29 09:24:36;;;;;;;32.08;29.38;;;16.60;99.90;;;;;;5065522;28;20037;-79
2023/08/29 09:27:08;;;;;;;31.25;28.95;;;16.40;99.90;;;;;;5061628;28;20494;-79
2023/08/29 09:29:36;;;;;;;29.55;27.35;;;16.50;99.90;;;;;;5058251;28;20568;-79
2023/08/29 09:32:21;;;;;;;29.75;27.35;;;16.60;99.90;;;;;;5034474;28;20123;-78
2023/08/29 09:34:56;;;;;;;28.25;25.88;;;16.60;99.90;;;;;;5070009;28;20051;-78
2023/08/29 09:37:26;;;;;;;24.30;22.63;;;16.60;99.90;;;;;;5056440;28;20514;-78
2023/08/29 09:39:53;;;;;;;22.65;21.10;;;16.50;99.90;;;;;;5051984;28;20517;-80
2023/08/29 09:42:22;;;;;;;23.02;21.40;;;16.30;99.90;;;;;;5055563;28;20683;-79
2023/08/29 09:44:52;;;;;;;23.65;21.65;;;15.90;99.90;;;;;;5047563;28;20523;-82
2023/08/29 09:47:26;;;;;;;23.50;21.88;;;16.00;99.90;;;;;;5053611;28;20051;-79
2023/08/29 09:49:53;;;;;;;23.23;21.75;;;16.30;99.90;;;;;;5049405;28;20044;-78
2023/08/29 09:52:21;;;;;;;24.38;22.85;;;16.50;99.90;;;;;;5046189;28;20083;-79
2023/08/29 09:54:52;;;;;;;23.33;21.73;;;16.60;99.90;;;;;;5055176;28;20041;-80
2023/08/29 09:57:31;;;;;;;25.80;23.95;;;16.70;99.90;;;;;;5050993;28;20170;-81
2023/08/29 10:00:13;;;;;;;25.15;23.55;;;17.00;99.90;;;;;;5051166;28;20056;-81
2023/08/29 10:02:41;;;;;;;24.88;23.17;;;17.00;99.90;;;;;;5052820;28;20052;-80
2023/08/29 10:05:12;;;;;;;25.48;23.58;;;17.30;99.90;;;;;;5037931;28;20044;-80
2023/08/29 10:07:45;;;;;;;24.17;22.67;;;17.60;99.90;;;;;;5053756;28;20048;-81
2023/08/29 10:10:20;;;;;;;25.45;23.75;;;17.40;99.90;;;;;;5044866;28;20041;-79
2023/08/29 10:12:52;;;;;;;25.08;23.35;;;17.80;99.90;;;;;;5053623;28;20072;-81
2023/08/29 10:15:37;;;;;;;26.42;24.52;;;18.30;99.90;;;;;;5027523;28;20418;-79
2023/08/29 10:18:06;;;;;;;25.80;24.10;;;18.60;99.90;;;;;;5054351;28;20060;-80
2023/08/29 10:20:37;;;;;;;25.02;23.05;;;18.60;99.90;;;;;;5051588;28;20049;-80
2023/08/29 10:23:07;;;;;;;25.33;23.80;;;18.70;99.90;;;;;;5040398;28;20044;-81
2023/08/29 10:25:36;;;;;;;25.38;23.77;;;18.20;99.90;;;;;;5038849;28;20179;-79
2023/08/29 10:28:14;;;;;;;25.75;24.15;;;18.00;99.90;;;;;;5051233;28;20135;-80
2023/08/29 10:30:54;;;;;;;25.83;23.95;;;17.50;99.90;;;;;;5022643;28;20104;-80
2023/08/29 10:33:22;;;;;;;26.15;24.35;;;17.80;99.90;;;;;;5050842;28;20352;-79
2023/08/29 10:35:49;;;;;;;26.58;24.80;;;18.60;99.90;;;;;;5050797;28;20028;-80
2023/08/29 10:38:19;;;;;;;25.33;23.83;;;18.70;99.90;;;;;;5035146;28;20064;-80
2023/08/29 10:40:46;;;;;;;26.65;24.95;;;19.20;99.90;;;;;;5051605;28;20329;-80
2023/08/29 10:43:20;;;;;;;25.40;23.73;;;19.20;99.90;;;;;;5049294;28;20433;-80
2023/08/29 10:45:53;;;;;;;26.35;24.85;;;19.50;99.90;;;;;;5047592;28;20044;-80
2023/08/29 10:48:30;;;;;;;27.40;25.70;;;19.40;99.90;;;;;;5035024;28;20071;-79
2023/08/29 10:51:23;;;;;;;25.20;23.70;;;19.40;99.90;;;;;;5052183;28;20041;-80
2023/08/29 10:53:54;;;;;;;25.52;23.88;;;19.20;99.90;;;;;;5052780;28;20037;-80
2023/08/29 10:56:24;;;;;;;24.60;23.05;;;19.60;99.90;;;;;;5034269;28;20584;-80
2023/08/29 10:58:55;;;;;;;24.20;22.70;;;19.70;99.90;;;;;;5047187;28;20037;-78
2023/08/29 11:01:28;;;;;;;25.58;23.90;;;20.10;99.90;;;;;;5052729;28;20044;-79
2023/08/29 11:03:56;;;;;;;25.73;23.92;;;20.20;99.90;;;;;;5050646;28;20205;-80
2023/08/29 11:06:25;;;;;;;23.65;22.13;;;20.10;99.90;;;;;;5052149;28;20083;-80
2023/08/29 11:09:20;;;;;;;23.85;22.30;;;20.00;99.90;;;;;;5053644;28;20249;-79
2023/08/29 11:12:07;;;;;;;24.50;22.77;;;20.00;99.90;;;;;;5050603;28;20033;-80
2023/08/29 11:14:58;;;;;;;24.75;23.05;;;19.80;99.90;;;;;;5039765;28;20036;-79
2023/08/29 11:17:25;;;;;;;25.10;23.50;;;19.70;99.90;;;;;;5057903;28;20079;-80
2023/08/29 11:20:02;;;;;;;25.65;23.77;;;20.00;99.90;;;;;;5051920;28;20104;-83
2023/08/29 11:22:29;;;;;;;26.25;23.98;;;20.10;99.90;;;;;;5037484;28;20041;-80
2023/08/29 11:24:58;;;;;;;25.25;23.48;;;20.30;99.90;;;;;;5051550;28;20045;-80
2023/08/29 11:27:25;;;;;;;26.15;24.13;;;20.20;99.90;;;;;;5055261;28;20508;-79
2023/08/29 11:29:53;;;;;;;26.60;24.80;;;20.10;99.90;;;;;;5050718;28;20032;-80
2023/08/29 11:32:40;;;;;;;25.40;23.80;;;19.70;99.90;;;;;;5052329;28;20491;-80
2023/08/29 11:35:11;;;;;;;26.27;24.38;;;19.10;99.90;;;;;;5049783;28;20048;-80
2023/08/29 11:37:38;;;;;;;25.98;24.17;;;19.10;99.90;;;;;;5040205;28;20075;-80
2023/08/29 11:40:09;;;;;;;26.63;24.92;;;19.20;99.90;;;;;;5047051;28;20410;-79
2023/08/29 11:42:52;;;;;;;26.83;24.92;;;18.80;99.90;;;;;;5052735;28;20669;-81
2023/08/29 11:45:39;;;;;;;27.00;24.77;;;19.00;99.90;;;;;;5038978;28;20036;-80
2023/08/29 11:48:25;;;;;;;26.58;24.83;;;19.30;99.90;;;;;;5056142;28;20419;-79
2023/08/29 11:51:12;;;;;;;25.83;24.05;;;19.60;99.90;;;;;;5049756;28;20044;-80
2023/08/29 11:53:42;;;;;;;26.33;24.52;;;19.60;99.90;;;;;;5039939;28;20044;-81
2023/08/29 11:56:10;;;;;;;26.20;24.55;;;19.70;99.90;;;;;;5047411;28;20041;-80
2023/08/29 11:58:40;;;;;;;26.27;24.52;;;19.80;99.90;;;;;;5057975;28;20094;-79
2023/08/29 12:01:07;;;;;;;27.08;25.38;;;19.70;99.90;;;;;;5059287;28;20074;-80
2023/08/29 12:03:38;;;;;;;26.70;24.88;;;19.60;99.90;;;;;;5047918;28;20068;-81
2023/08/29 12:06:12;;;;;;;26.27;24.48;;;19.60;99.90;;;;;;5053285;28;20040;-82
2023/08/29 12:08:44;;;;;;;26.83;25.02;;;19.40;99.90;;;;;;5053649;28;20094;-83
2023/08/29 12:11:13;;;;;;;25.98;24.30;;;19.40;99.90;;;;;;5052772;28;20033;-81
2023/08/29 12:13:59;;;;;;;27.17;25.55;;;19.40;99.90;;;;;;5059921;28;20032;-79
2023/08/29 12:16:26;;;;;;;27.17;25.48;;;19.30;99.90;;;;;;5053911;28;20029;-81
2023/08/29 12:19:05;;;;;;;28.90;27.10;;;19.30;99.90;;;;;;5054104;28;20113;-81
2023/08/29 12:21:31;;;;;;;27.02;25.15;;;19.70;99.90;;;;;;5052071;28;20607;-80
2023/08/29 12:24:11;;;;;;;26.30;24.70;;;20.20;99.90;;;;;;5052710;28;20442;-81
2023/08/29 12:26:38;;;;;;;25.58;23.98;;;20.20;99.90;;;;;;5056143;28;20155;-81
2023/08/29 12:29:05;;;;;;;26.88;24.95;;;20.40;99.90;;;;;;5038739;28;20060;-81
2023/08/29 12:31:33;;;;;;;28.15;26.45;;;20.60;99.90;;;;;;5050672;28;20454;-82
2023/08/29 12:34:00;;;;;;;26.77;25.17;;;20.50;99.90;;;;;;5058920;28;20088;-83
2023/08/29 12:36:27;;;;;;;26.30;24.65;;;20.50;99.90;;;;;;5058282;28;20094;-81
2023/08/29 12:38:54;;;;;;;26.48;24.88;;;21.00;99.90;;;;;;5064259;28;20037;-81